Time,TemperatureF,DewpointF,PressureIn,WindDirection,WindDirectionDegrees,WindSpeedMPH,WindSpeedGustMPH,Humidity,HourlyPrecipIn,Conditions,Clouds,dailyrainin,SolarRadiationWatts/m^2,SoftwareType,DateUTC
2013-10-20 01:00:00,56.0,2.0,-100.00,WNW,299,9.0,14.0,11,0.00,,,0.00,0.000000,,2013-10-20 08:00:00,
2013-10-20 01:42:00,56.0,2.0,-100.00,WNW,299,9.0,14.0,11,0.00,,,0.00,0.000000,,2013-10-20 08:42:00,
2013-10-20 01:52:00,56.0,2.0,-100.00,WNW,299,9.0,14.0,11,0.00,,,0.00,0.000000,,2013-10-20 08:52:00,
2013-10-20 02:00:00,53.0,5.0,-100.00,WNW,291,10.0,13.0,14,0.00,,,0.00,0.000000,,2013-10-20 09:00:00,
2013-10-20 02:43:00,53.0,5.0,-100.00,WNW,291,10.0,13.0,14,0.00,,,0.00,0.000000,,2013-10-20 09:43:00,
2013-10-20 02:53:00,53.0,5.0,-100.00,WNW,291,10.0,13.0,14,0.00,,,0.00,0.000000,,2013-10-20 09:53:00,
2013-10-20 03:00:00,53.0,4.0,-100.00,WNW,292,11.0,14.0,13,0.00,,,0.00,0.000000,,2013-10-20 10:00:00,
2013-10-20 03:43:00,53.0,4.0,-100.00,WNW,292,11.0,14.0,13,0.00,,,0.00,0.000000,,2013-10-20 10:43:00,
2013-10-20 03:53:00,53.0,4.0,-100.00,WNW,292,11.0,14.0,13,0.00,,,0.00,0.000000,,2013-10-20 10:53:00,
2013-10-20 04:43:00,50.0,3.0,-100.00,WNW,291,10.0,14.0,14,0.00,,,0.00,0.000000,,2013-10-20 11:43:00,
2013-10-20 05:00:00,49.0,3.0,-100.00,WNW,289,10.0,13.0,15,0.00,,,0.00,0.000000,,2013-10-20 12:00:00,
2013-10-20 05:42:00,49.0,3.0,-100.00,WNW,289,10.0,13.0,15,0.00,,,0.00,0.000000,,2013-10-20 12:42:00,
2013-10-20 05:52:00,49.0,3.0,-100.00,WNW,289,10.0,13.0,15,0.00,,,0.00,0.000000,,2013-10-20 12:52:00,
2013-10-20 06:00:00,48.0,4.0,-100.00,WNW,290,10.0,13.0,16,0.00,,,0.00,0.000000,,2013-10-20 13:00:00,
2013-10-20 06:42:00,48.0,4.0,-100.00,WNW,290,10.0,13.0,16,0.00,,,0.00,0.000000,,2013-10-20 13:42:00,
2013-10-20 06:52:00,48.0,4.0,-100.00,WNW,290,10.0,13.0,16,0.00,,,0.00,0.000000,,2013-10-20 13:52:00,
2013-10-20 07:00:00,49.0,6.0,-100.00,WNW,286,8.0,12.0,17,0.00,,,0.00,0.000000,,2013-10-20 14:00:00,
2013-10-20 07:42:00,49.0,6.0,-100.00,WNW,286,8.0,12.0,17,0.00,,,0.00,0.000000,,2013-10-20 14:42:00,
2013-10-20 07:52:00,49.0,6.0,-100.00,WNW,286,8.0,12.0,17,0.00,,,0.00,0.000000,,2013-10-20 14:52:00,
2013-10-20 08:00:00,48.0,5.0,-100.00,WNW,287,9.0,12.0,17,0.00,,,0.00,0.000000,,2013-10-20 15:00:00,
2013-10-20 08:44:00,48.0,5.0,-100.00,WNW,287,9.0,12.0,17,0.00,,,0.00,0.000000,,2013-10-20 15:44:00,
2013-10-20 08:54:00,48.0,5.0,-100.00,WNW,287,9.0,12.0,17,0.00,,,0.00,0.000000,,2013-10-20 15:54:00,
2013-10-20 10:00:00,62.0,11.0,-100.00,ESE,123,0.0,5.0,13,0.00,,,-99.99,326.000000,,2013-10-20 17:00:00,
2013-10-20 10:42:00,62.0,11.0,-100.00,ESE,123,0.0,5.0,13,0.00,,,-99.99,326.000000,,2013-10-20 17:42:00,
2013-10-20 10:52:00,62.0,11.0,-100.00,ESE,123,0.0,5.0,13,0.00,,,-99.99,326.000000,,2013-10-20 17:52:00,
2013-10-20 11:00:00,66.0,12.0,-100.00,ESE,109,4.0,7.0,12,0.00,,,0.00,567.000000,,2013-10-20 18:00:00,
2013-10-20 11:42:00,66.0,12.0,-100.00,ESE,109,4.0,7.0,12,0.00,,,0.00,567.000000,,2013-10-20 18:42:00,
2013-10-20 11:52:00,66.0,12.0,-100.00,ESE,109,4.0,7.0,12,0.00,,,0.00,567.000000,,2013-10-20 18:52:00,
2013-10-20 13:43:00,74.0,12.0,-100.00,SE,128,3.0,8.0,9,0.00,,,0.00,947.000000,,2013-10-20 20:43:00,
2013-10-20 17:00:00,79.0,26.0,-100.00,West,277,7.0,15.0,14,0.00,,,0.00,639.000000,,2013-10-21 00:00:00,
2013-10-20 17:22:00,79.0,26.0,-100.00,West,277,7.0,15.0,14,0.00,,,0.00,639.000000,,2013-10-21 00:22:00,
2013-10-20 17:32:00,79.0,26.0,-100.00,West,277,7.0,15.0,14,0.00,,,0.00,639.000000,,2013-10-21 00:32:00,
2013-10-20 17:43:00,79.0,26.0,-100.00,West,277,7.0,15.0,14,0.00,,,0.00,639.000000,,2013-10-21 00:43:00,
2013-10-20 17:52:00,79.0,26.0,-100.00,West,277,7.0,15.0,14,0.00,,,0.00,639.000000,,2013-10-21 00:52:00,
2013-10-20 18:42:00,77.0,26.0,-100.00,West,277,8.0,17.0,15,0.00,,,0.00,409.000000,,2013-10-21 01:42:00,
2013-10-20 19:00:00,70.0,22.0,-100.00,West,265,7.0,14.0,16,-99.99,,,0.00,64.000000,,2013-10-21 02:00:00,
2013-10-20 19:22:00,70.0,22.0,-100.00,West,265,7.0,14.0,16,-99.99,,,0.00,64.000000,,2013-10-21 02:22:00,
2013-10-20 19:32:00,70.0,22.0,-100.00,West,265,7.0,14.0,16,-99.99,,,0.00,64.000000,,2013-10-21 02:32:00,
2013-10-20 19:42:00,70.0,22.0,-100.00,West,265,7.0,14.0,16,-99.99,,,0.00,64.000000,,2013-10-21 02:42:00,
2013-10-20 19:52:00,70.0,22.0,-100.00,West,265,7.0,14.0,16,-99.99,,,0.00,64.000000,,2013-10-21 02:52:00,
2013-10-20 20:00:00,65.0,20.0,-100.00,WNW,299,5.0,13.0,18,0.00,,,0.00,2.000000,,2013-10-21 03:00:00,
2013-10-20 20:45:00,65.0,20.0,-100.00,WNW,299,5.0,13.0,18,0.00,,,0.00,2.000000,,2013-10-21 03:45:00,
2013-10-20 20:54:00,65.0,20.0,-100.00,WNW,299,5.0,13.0,18,0.00,,,0.00,2.000000,,2013-10-21 03:54:00,
2013-10-20 21:00:00,60.0,14.0,-100.00,West,281,5.0,15.0,16,0.00,,,0.00,0.000000,,2013-10-21 04:00:00,
2013-10-20 21:44:00,60.0,14.0,-100.00,West,281,5.0,15.0,16,0.00,,,0.00,0.000000,,2013-10-21 04:44:00,
2013-10-20 21:53:00,60.0,14.0,-100.00,West,281,5.0,15.0,16,0.00,,,0.00,0.000000,,2013-10-21 04:53:00,
2013-10-20 22:00:00,58.0,11.0,-100.00,NW,304,7.0,12.0,15,0.00,,,0.00,0.000000,,2013-10-21 05:00:00,
2013-10-20 22:43:00,58.0,11.0,-100.00,NW,304,7.0,12.0,15,0.00,,,0.00,0.000000,,2013-10-21 05:43:00,
2013-10-20 22:52:00,58.0,11.0,-100.00,NW,304,7.0,12.0,15,0.00,,,0.00,0.000000,,2013-10-21 05:52:00,
2013-10-20 23:00:00,56.0,13.0,-100.00,WNW,296,9.0,12.0,18,0.00,,,0.00,0.000000,,2013-10-21 06:00:00,
2013-10-20 23:42:00,56.0,13.0,-100.00,WNW,296,9.0,12.0,18,0.00,,,0.00,0.000000,,2013-10-21 06:42:00,
2013-10-20 23:52:00,56.0,13.0,-100.00,WNW,296,9.0,12.0,18,0.00,,,0.00,0.000000,,2013-10-21 06:52:00,